METAR Data
IDs: Format: Raw Decoded Include TAF

Data at: 1940 UTC 31 Jan 2023

METAR for:EBCI (Charleroi Arpt, WH, BE)
Text:EBCI 311920Z 24010KT 9999 BKN006 06/05 Q1024 NOSIG
Temperature: 6.0°C ( 43°F)
Dewpoint: 5.0°C ( 41°F) [RH = 93%]
Pressure (altimeter):30.24 inches Hg (1024.0 mb)
Winds:from the WSW (240 degrees) at 12 MPH (10 knots; 5.1 m/s)
Visibility:6 or more sm (10+ km)
Ceiling:600 feet AGL
Clouds: broken clouds at 600 feet AGL

TAF for:EBCI (Charleroi Arpt, WH, BE) issued at 1700 UTC 31 Jan 2023
Text:TAF EBCI 311700Z 3118/0124 26007KT 9999 BKN015
Forecast period:1800 UTC 31 January 2023 to 0000 UTC 02 February 2023
Forecast type:FROM: standard forecast or significant change
Winds:from the W (260 degrees) at 8 MPH (7 knots; 3.6 m/s)
Visibility:6 or more sm (10+ km)
Ceiling:1500 feet AGL
Clouds: broken clouds at 1500 feet AGL